sensor_id;sensor_type;location;lat;lon;timestamp;temperature;humidity
3816;DHT22;1923;48.154;11.536;2023-08-07T00:00:28;13.80;99.90
3816;DHT22;1923;48.154;11.536;2023-08-07T00:02:56;13.80;99.90
3816;DHT22;1923;48.154;11.536;2023-08-07T00:05:24;13.80;99.90
3816;DHT22;1923;48.154;11.536;2023-08-07T00:07:52;13.70;99.90
3816;DHT22;1923;48.154;11.536;2023-08-07T00:10:20;13.70;99.90
3816;DHT22;1923;48.154;11.536;2023-08-07T00:12:48;13.60;99.90
3816;DHT22;1923;48.154;11.536;2023-08-07T00:15:17;13.70;99.90
3816;DHT22;1923;48.154;11.536;2023-08-07T00:17:46;13.60;99.90
3816;DHT22;1923;48.154;11.536;2023-08-07T00:20:14;13.60;99.90
3816;DHT22;1923;48.154;11.536;2023-08-07T00:22:42;13.60;99.90
3816;DHT22;1923;48.154;11.536;2023-08-07T00:25:11;13.60;99.90
3816;DHT22;1923;48.154;11.536;2023-08-07T00:27:39;13.60;99.90
3816;DHT22;1923;48.154;11.536;2023-08-07T00:30:08;13.50;99.90
3816;DHT22;1923;48.154;11.536;2023-08-07T00:32:36;13.50;99.90
3816;DHT22;1923;48.154;11.536;2023-08-07T00:35:06;13.50;99.90
3816;DHT22;1923;48.154;11.536;2023-08-07T00:37:35;13.50;99.90
3816;DHT22;1923;48.154;11.536;2023-08-07T00:40:03;13.50;99.90
3816;DHT22;1923;48.154;11.536;2023-08-07T00:42:31;13.30;99.90
3816;DHT22;1923;48.154;11.536;2023-08-07T00:44:59;13.30;99.90
3816;DHT22;1923;48.154;11.536;2023-08-07T00:47:28;13.30;99.90
3816;DHT22;1923;48.154;11.536;2023-08-07T00:49:58;13.20;99.90
3816;DHT22;1923;48.154;11.536;2023-08-07T00:52:28;13.20;99.90
3816;DHT22;1923;48.154;11.536;2023-08-07T00:54:56;13.10;99.90
3816;DHT22;1923;48.154;11.536;2023-08-07T00:57:24;12.90;99.90
3816;DHT22;1923;48.154;11.536;2023-08-07T00:59:53;12.90;99.90
3816;DHT22;1923;48.154;11.536;2023-08-07T01:02:21;12.80;99.90
3816;DHT22;1923;48.154;11.536;2023-08-07T01:04:50;12.70;99.90
3816;DHT22;1923;48.154;11.536;2023-08-07T01:07:18;12.60;99.90
3816;DHT22;1923;48.154;11.536;2023-08-07T01:09:48;12.50;99.90
3816;DHT22;1923;48.154;11.536;2023-08-07T01:12:18;12.40;99.90
3816;DHT22;1923;48.154;11.536;2023-08-07T01:14:52;12.40;99.90
3816;DHT22;1923;48.154;11.536;2023-08-07T01:17:23;12.30;99.90
3816;DHT22;1923;48.154;11.536;2023-08-07T01:19:52;12.30;99.90
3816;DHT22;1923;48.154;11.536;2023-08-07T01:22:21;12.30;99.90
3816;DHT22;1923;48.154;11.536;2023-08-07T01:24:50;12.30;99.90
3816;DHT22;1923;48.154;11.536;2023-08-07T01:27:30;12.30;99.90
3816;DHT22;1923;48.154;11.536;2023-08-07T01:30:05;12.20;99.90
3816;DHT22;1923;48.154;11.536;2023-08-07T01:32:41;12.10;99.90
3816;DHT22;1923;48.154;11.536;2023-08-07T01:35:12;12.10;99.90
3816;DHT22;1923;48.154;11.536;2023-08-07T01:37:44;12.00;99.90
3816;DHT22;1923;48.154;11.536;2023-08-07T01:40:13;12.00;99.90
3816;DHT22;1923;48.154;11.536;2023-08-07T01:42:43;12.00;99.90
3816;DHT22;1923;48.154;11.536;2023-08-07T01:45:12;12.00;99.90
3816;DHT22;1923;48.154;11.536;2023-08-07T01:47:40;12.00;99.90
3816;DHT22;1923;48.154;11.536;2023-08-07T01:50:08;11.90;99.90
3816;DHT22;1923;48.154;11.536;2023-08-07T01:52:36;11.90;99.90
3816;DHT22;1923;48.154;11.536;2023-08-07T01:55:06;11.90;99.90
3816;DHT22;1923;48.154;11.536;2023-08-07T01:57:34;11.80;99.90
3816;DHT22;1923;48.154;11.536;2023-08-07T02:00:03;11.80;99.90
3816;DHT22;1923;48.154;11.536;2023-08-07T02:02:31;11.80;99.90
3816;DHT22;1923;48.154;11.536;2023-08-07T02:04:59;11.80;99.90
3816;DHT22;1923;48.154;11.536;2023-08-07T02:07:28;11.80;99.90
3816;DHT22;1923;48.154;11.536;2023-08-07T02:09:56;11.80;99.90
3816;DHT22;1923;48.154;11.536;2023-08-07T02:12:26;11.80;99.90
3816;DHT22;1923;48.154;11.536;2023-08-07T02:14:56;11.80;99.90
3816;DHT22;1923;48.154;11.536;2023-08-07T02:17:24;11.80;99.90
3816;DHT22;1923;48.154;11.536;2023-08-07T02:19:52;11.80;99.90
3816;DHT22;1923;48.154;11.536;2023-08-07T02:22:21;11.80;99.90
3816;DHT22;1923;48.154;11.536;2023-08-07T02:24:49;11.80;99.90
3816;DHT22;1923;48.154;11.536;2023-08-07T02:27:17;11.80;99.90
3816;DHT22;1923;48.154;11.536;2023-08-07T02:29:47;11.70;99.90
3816;DHT22;1923;48.154;11.536;2023-08-07T02:32:15;11.70;99.90
3816;DHT22;1923;48.154;11.536;2023-08-07T02:34:43;11.80;99.90
3816;DHT22;1923;48.154;11.536;2023-08-07T02:37:12;11.80;99.90
3816;DHT22;1923;48.154;11.536;2023-08-07T02:39:40;11.90;99.90
3816;DHT22;1923;48.154;11.536;2023-08-07T02:42:08;11.90;99.90
3816;DHT22;1923;48.154;11.536;2023-08-07T02:44:36;11.90;99.90
3816;DHT22;1923;48.154;11.536;2023-08-07T02:47:06;11.90;99.90
3816;DHT22;1923;48.154;11.536;2023-08-07T02:49:34;11.90;99.90
3816;DHT22;1923;48.154;11.536;2023-08-07T02:52:02;11.90;99.90
3816;DHT22;1923;48.154;11.536;2023-08-07T02:54:30;11.90;99.90
3816;DHT22;1923;48.154;11.536;2023-08-07T02:56:58;12.00;99.90
3816;DHT22;1923;48.154;11.536;2023-08-07T02:59:26;12.00;99.90
3816;DHT22;1923;48.154;11.536;2023-08-07T03:01:54;12.00;99.90
3816;DHT22;1923;48.154;11.536;2023-08-07T03:04:24;12.00;99.90
3816;DHT22;1923;48.154;11.536;2023-08-07T03:06:52;12.00;99.90
3816;DHT22;1923;48.154;11.536;2023-08-07T03:09:22;12.00;99.90
3816;DHT22;1923;48.154;11.536;2023-08-07T03:11:50;12.10;99.90
3816;DHT22;1923;48.154;11.536;2023-08-07T03:14:18;12.10;99.90
3816;DHT22;1923;48.154;11.536;2023-08-07T03:16:46;12.20;99.90
3816;DHT22;1923;48.154;11.536;2023-08-07T03:19:14;12.20;99.90
3816;DHT22;1923;48.154;11.536;2023-08-07T03:21:44;12.20;99.90
3816;DHT22;1923;48.154;11.536;2023-08-07T03:24:12;12.20;99.90
3816;DHT22;1923;48.154;11.536;2023-08-07T03:26:40;12.20;99.90
3816;DHT22;1923;48.154;11.536;2023-08-07T03:29:08;12.20;99.90
3816;DHT22;1923;48.154;11.536;2023-08-07T03:31:36;12.30;99.90
3816;DHT22;1923;48.154;11.536;2023-08-07T03:34:04;12.30;99.90
3816;DHT22;1923;48.154;11.536;2023-08-07T03:36:32;12.30;99.90
3816;DHT22;1923;48.154;11.536;2023-08-07T03:39:02;12.30;99.90
3816;DHT22;1923;48.154;11.536;2023-08-07T03:41:30;12.30;99.90
3816;DHT22;1923;48.154;11.536;2023-08-07T03:43:58;12.40;99.90
3816;DHT22;1923;48.154;11.536;2023-08-07T03:46:26;12.30;99.90
3816;DHT22;1923;48.154;11.536;2023-08-07T03:48:54;12.40;99.90
3816;DHT22;1923;48.154;11.536;2023-08-07T03:51:22;12.40;99.90
3816;DHT22;1923;48.154;11.536;2023-08-07T03:53:50;12.40;99.90
3816;DHT22;1923;48.154;11.536;2023-08-07T03:56:20;12.30;99.90
3816;DHT22;1923;48.154;11.536;2023-08-07T03:58:48;12.40;99.90
3816;DHT22;1923;48.154;11.536;2023-08-07T04:01:17;12.40;99.90
3816;DHT22;1923;48.154;11.536;2023-08-07T04:03:46;12.40;99.90
3816;DHT22;1923;48.154;11.536;2023-08-07T04:06:15;12.50;99.90
3816;DHT22;1923;48.154;11.536;2023-08-07T04:08:45;12.50;99.90
3816;DHT22;1923;48.154;11.536;2023-08-07T04:11:13;12.60;99.90
3816;DHT22;1923;48.154;11.536;2023-08-07T04:13:42;12.60;99.90
3816;DHT22;1923;48.154;11.536;2023-08-07T04:16:11;12.50;99.90
3816;DHT22;1923;48.154;11.536;2023-08-07T04:18:39;12.60;99.90
3816;DHT22;1923;48.154;11.536;2023-08-07T04:21:07;12.50;99.90
3816;DHT22;1923;48.154;11.536;2023-08-07T04:23:35;12.60;99.90
3816;DHT22;1923;48.154;11.536;2023-08-07T04:26:03;12.60;99.90
3816;DHT22;1923;48.154;11.536;2023-08-07T04:28:31;12.70;99.90
3816;DHT22;1923;48.154;11.536;2023-08-07T04:31:00;12.60;99.90
3816;DHT22;1923;48.154;11.536;2023-08-07T04:33:29;12.60;99.90
3816;DHT22;1923;48.154;11.536;2023-08-07T04:35:57;12.60;99.90
3816;DHT22;1923;48.154;11.536;2023-08-07T04:38:25;12.60;99.90
3816;DHT22;1923;48.154;11.536;2023-08-07T04:40:53;12.80;99.90
3816;DHT22;1923;48.154;11.536;2023-08-07T04:43:21;12.70;99.90
3816;DHT22;1923;48.154;11.536;2023-08-07T04:45:49;12.80;99.90
3816;DHT22;1923;48.154;11.536;2023-08-07T04:48:19;12.80;99.90
3816;DHT22;1923;48.154;11.536;2023-08-07T04:50:47;12.80;99.90
3816;DHT22;1923;48.154;11.536;2023-08-07T04:53:16;12.90;99.90
3816;DHT22;1923;48.154;11.536;2023-08-07T04:55:44;12.90;99.90
3816;DHT22;1923;48.154;11.536;2023-08-07T04:58:12;12.90;99.90
3816;DHT22;1923;48.154;11.536;2023-08-07T05:00:43;12.90;99.90
3816;DHT22;1923;48.154;11.536;2023-08-07T05:03:11;12.90;99.90
3816;DHT22;1923;48.154;11.536;2023-08-07T05:05:41;12.90;99.90
3816;DHT22;1923;48.154;11.536;2023-08-07T05:08:09;12.80;99.90
3816;DHT22;1923;48.154;11.536;2023-08-07T05:10:37;12.90;99.90
3816;DHT22;1923;48.154;11.536;2023-08-07T05:13:05;13.00;99.90
3816;DHT22;1923;48.154;11.536;2023-08-07T05:15:33;13.00;99.90
3816;DHT22;1923;48.154;11.536;2023-08-07T05:18:01;13.00;99.90
3816;DHT22;1923;48.154;11.536;2023-08-07T05:20:29;13.00;99.90
3816;DHT22;1923;48.154;11.536;2023-08-07T05:22:59;13.00;99.90
3816;DHT22;1923;48.154;11.536;2023-08-07T05:25:27;13.10;99.90
3816;DHT22;1923;48.154;11.536;2023-08-07T05:27:54;13.10;99.90
3816;DHT22;1923;48.154;11.536;2023-08-07T05:30:23;13.10;99.90
3816;DHT22;1923;48.154;11.536;2023-08-07T05:32:51;13.10;99.90
3816;DHT22;1923;48.154;11.536;2023-08-07T05:35:19;13.10;99.90
3816;DHT22;1923;48.154;11.536;2023-08-07T05:37:47;13.20;99.90
3816;DHT22;1923;48.154;11.536;2023-08-07T05:40:16;13.00;99.90
3816;DHT22;1923;48.154;11.536;2023-08-07T05:42:45;13.10;99.90
3816;DHT22;1923;48.154;11.536;2023-08-07T05:45:13;13.10;99.90
3816;DHT22;1923;48.154;11.536;2023-08-07T05:47:41;13.10;99.90
3816;DHT22;1923;48.154;11.536;2023-08-07T05:50:09;13.20;99.90
3816;DHT22;1923;48.154;11.536;2023-08-07T05:52:37;13.20;99.90
3816;DHT22;1923;48.154;11.536;2023-08-07T05:55:06;13.20;99.90
3816;DHT22;1923;48.154;11.536;2023-08-07T05:57:36;13.20;99.90
3816;DHT22;1923;48.154;11.536;2023-08-07T06:00:05;13.30;99.90
3816;DHT22;1923;48.154;11.536;2023-08-07T06:02:34;13.30;99.90
3816;DHT22;1923;48.154;11.536;2023-08-07T06:05:03;13.30;99.90
3816;DHT22;1923;48.154;11.536;2023-08-07T06:07:31;13.30;99.90
3816;DHT22;1923;48.154;11.536;2023-08-07T06:09:59;13.30;99.90
3816;DHT22;1923;48.154;11.536;2023-08-07T06:12:27;13.30;99.90
3816;DHT22;1923;48.154;11.536;2023-08-07T06:14:56;13.30;99.90
3816;DHT22;1923;48.154;11.536;2023-08-07T06:17:25;13.40;99.90
3816;DHT22;1923;48.154;11.536;2023-08-07T06:19:53;13.30;99.90
3816;DHT22;1923;48.154;11.536;2023-08-07T06:22:21;13.40;99.90
3816;DHT22;1923;48.154;11.536;2023-08-07T06:24:50;13.40;99.90
3816;DHT22;1923;48.154;11.536;2023-08-07T06:27:20;13.30;99.90
3816;DHT22;1923;48.154;11.536;2023-08-07T06:29:48;13.40;99.90
3816;DHT22;1923;48.154;11.536;2023-08-07T06:32:18;13.50;99.90
3816;DHT22;1923;48.154;11.536;2023-08-07T06:34:46;13.60;99.90
3816;DHT22;1923;48.154;11.536;2023-08-07T06:37:14;13.60;99.90
3816;DHT22;1923;48.154;11.536;2023-08-07T06:39:42;13.70;99.90
3816;DHT22;1923;48.154;11.536;2023-08-07T06:42:14;13.80;99.90
3816;DHT22;1923;48.154;11.536;2023-08-07T06:44:43;13.90;99.90
3816;DHT22;1923;48.154;11.536;2023-08-07T06:47:11;14.00;99.90
3816;DHT22;1923;48.154;11.536;2023-08-07T06:49:40;14.10;99.90
3816;DHT22;1923;48.154;11.536;2023-08-07T06:52:08;14.00;99.90
3816;DHT22;1923;48.154;11.536;2023-08-07T06:54:36;14.10;99.90
3816;DHT22;1923;48.154;11.536;2023-08-07T06:57:04;14.10;99.90
3816;DHT22;1923;48.154;11.536;2023-08-07T06:59:33;14.20;99.90
3816;DHT22;1923;48.154;11.536;2023-08-07T07:02:01;14.30;99.90
3816;DHT22;1923;48.154;11.536;2023-08-07T07:04:29;14.30;99.90
3816;DHT22;1923;48.154;11.536;2023-08-07T07:06:58;14.40;99.90
3816;DHT22;1923;48.154;11.536;2023-08-07T07:09:27;14.40;99.90
3816;DHT22;1923;48.154;11.536;2023-08-07T07:11:55;14.50;99.90
3816;DHT22;1923;48.154;11.536;2023-08-07T07:14:24;14.70;99.90
3816;DHT22;1923;48.154;11.536;2023-08-07T07:16:52;14.80;99.90
3816;DHT22;1923;48.154;11.536;2023-08-07T07:19:20;15.10;99.90
3816;DHT22;1923;48.154;11.536;2023-08-07T07:21:48;15.30;99.90
3816;DHT22;1923;48.154;11.536;2023-08-07T07:24:18;15.50;99.90
3816;DHT22;1923;48.154;11.536;2023-08-07T07:26:45;15.50;99.90
3816;DHT22;1923;48.154;11.536;2023-08-07T07:29:14;15.60;99.90
3816;DHT22;1923;48.154;11.536;2023-08-07T07:31:41;15.70;99.90
3816;DHT22;1923;48.154;11.536;2023-08-07T07:34:10;15.70;99.90
3816;DHT22;1923;48.154;11.536;2023-08-07T07:36:38;15.90;99.90
3816;DHT22;1923;48.154;11.536;2023-08-07T07:39:06;16.00;99.90
3816;DHT22;1923;48.154;11.536;2023-08-07T07:41:35;16.10;99.90
3816;DHT22;1923;48.154;11.536;2023-08-07T07:44:03;16.30;99.90
3816;DHT22;1923;48.154;11.536;2023-08-07T07:46:31;16.40;99.90
3816;DHT22;1923;48.154;11.536;2023-08-07T07:49:00;16.40;99.90
3816;DHT22;1923;48.154;11.536;2023-08-07T07:51:30;16.40;99.90
3816;DHT22;1923;48.154;11.536;2023-08-07T07:53:59;16.30;99.90
3816;DHT22;1923;48.154;11.536;2023-08-07T07:56:35;16.30;99.90
3816;DHT22;1923;48.154;11.536;2023-08-07T07:59:04;16.20;99.90
3816;DHT22;1923;48.154;11.536;2023-08-07T08:01:35;16.10;99.90
3816;DHT22;1923;48.154;11.536;2023-08-07T08:04:03;15.90;99.90
3816;DHT22;1923;48.154;11.536;2023-08-07T08:06:32;15.90;99.90
3816;DHT22;1923;48.154;11.536;2023-08-07T08:09:00;15.90;99.90
3816;DHT22;1923;48.154;11.536;2023-08-07T08:11:31;16.00;99.90
3816;DHT22;1923;48.154;11.536;2023-08-07T08:14:01;16.00;99.90
3816;DHT22;1923;48.154;11.536;2023-08-07T08:16:29;15.80;99.90
3816;DHT22;1923;48.154;11.536;2023-08-07T08:18:57;15.80;99.90
3816;DHT22;1923;48.154;11.536;2023-08-07T08:21:25;15.70;99.90
3816;DHT22;1923;48.154;11.536;2023-08-07T08:23:53;15.70;99.90
3816;DHT22;1923;48.154;11.536;2023-08-07T08:26:21;15.60;99.90
3816;DHT22;1923;48.154;11.536;2023-08-07T08:28:49;15.70;99.90
3816;DHT22;1923;48.154;11.536;2023-08-07T08:31:19;15.70;99.90
3816;DHT22;1923;48.154;11.536;2023-08-07T08:33:48;15.70;99.90
3816;DHT22;1923;48.154;11.536;2023-08-07T08:36:16;15.60;99.90
3816;DHT22;1923;48.154;11.536;2023-08-07T08:38:44;15.70;99.90
3816;DHT22;1923;48.154;11.536;2023-08-07T08:41:16;15.80;99.90
3816;DHT22;1923;48.154;11.536;2023-08-07T08:43:46;15.80;99.90
3816;DHT22;1923;48.154;11.536;2023-08-07T08:46:15;15.90;99.90
3816;DHT22;1923;48.154;11.536;2023-08-07T08:48:49;15.90;99.90
3816;DHT22;1923;48.154;11.536;2023-08-07T08:51:19;15.90;99.90
3816;DHT22;1923;48.154;11.536;2023-08-07T08:53:49;15.80;99.90
3816;DHT22;1923;48.154;11.536;2023-08-07T08:56:18;15.90;99.90
3816;DHT22;1923;48.154;11.536;2023-08-07T08:58:46;15.90;99.90
3816;DHT22;1923;48.154;11.536;2023-08-07T09:01:15;16.00;99.90
3816;DHT22;1923;48.154;11.536;2023-08-07T09:03:46;16.00;99.90
3816;DHT22;1923;48.154;11.536;2023-08-07T09:06:14;16.00;99.90
3816;DHT22;1923;48.154;11.536;2023-08-07T09:08:43;16.20;99.90
3816;DHT22;1923;48.154;11.536;2023-08-07T09:11:13;16.20;99.90
3816;DHT22;1923;48.154;11.536;2023-08-07T09:13:43;16.10;99.90
3816;DHT22;1923;48.154;11.536;2023-08-07T09:16:13;16.10;99.90
3816;DHT22;1923;48.154;11.536;2023-08-07T09:18:42;16.10;99.90
3816;DHT22;1923;48.154;11.536;2023-08-07T09:21:11;16.20;99.90
3816;DHT22;1923;48.154;11.536;2023-08-07T09:23:43;16.10;99.90
3816;DHT22;1923;48.154;11.536;2023-08-07T09:26:11;16.10;99.90
3816;DHT22;1923;48.154;11.536;2023-08-07T09:28:39;16.10;99.90
3816;DHT22;1923;48.154;11.536;2023-08-07T09:31:08;16.10;99.90
3816;DHT22;1923;48.154;11.536;2023-08-07T09:33:39;16.20;99.90
3816;DHT22;1923;48.154;11.536;2023-08-07T09:36:07;16.30;99.90
3816;DHT22;1923;48.154;11.536;2023-08-07T09:38:36;16.50;99.90
3816;DHT22;1923;48.154;11.536;2023-08-07T09:41:05;16.50;99.90
3816;DHT22;1923;48.154;11.536;2023-08-07T09:43:34;16.60;99.90
3816;DHT22;1923;48.154;11.536;2023-08-07T09:46:03;16.80;99.90
3816;DHT22;1923;48.154;11.536;2023-08-07T09:48:31;16.90;99.90
3816;DHT22;1923;48.154;11.536;2023-08-07T09:51:01;17.00;99.90
3816;DHT22;1923;48.154;11.536;2023-08-07T09:53:30;17.20;99.90
3816;DHT22;1923;48.154;11.536;2023-08-07T09:56:00;17.30;99.90
3816;DHT22;1923;48.154;11.536;2023-08-07T09:58:29;17.40;99.90
3816;DHT22;1923;48.154;11.536;2023-08-07T10:00:59;17.50;99.90
3816;DHT22;1923;48.154;11.536;2023-08-07T10:03:27;17.70;99.90
3816;DHT22;1923;48.154;11.536;2023-08-07T10:05:55;17.80;99.90
3816;DHT22;1923;48.154;11.536;2023-08-07T10:08:24;17.90;99.90
3816;DHT22;1923;48.154;11.536;2023-08-07T10:10:52;17.80;99.90
3816;DHT22;1923;48.154;11.536;2023-08-07T10:13:23;17.90;99.90
3816;DHT22;1923;48.154;11.536;2023-08-07T10:16:04;18.20;99.90
3816;DHT22;1923;48.154;11.536;2023-08-07T10:18:33;18.70;99.90
3816;DHT22;1923;48.154;11.536;2023-08-07T10:21:03;19.00;99.90
3816;DHT22;1923;48.154;11.536;2023-08-07T10:23:35;19.60;99.90
3816;DHT22;1923;48.154;11.536;2023-08-07T10:26:04;20.20;99.90
3816;DHT22;1923;48.154;11.536;2023-08-07T10:28:39;20.70;99.90
3816;DHT22;1923;48.154;11.536;2023-08-07T10:31:09;21.20;99.90
3816;DHT22;1923;48.154;11.536;2023-08-07T10:33:40;22.30;99.90
3816;DHT22;1923;48.154;11.536;2023-08-07T10:36:09;22.50;99.90
3816;DHT22;1923;48.154;11.536;2023-08-07T10:38:37;22.50;99.90
3816;DHT22;1923;48.154;11.536;2023-08-07T10:41:09;22.90;99.90
3816;DHT22;1923;48.154;11.536;2023-08-07T10:43:40;23.30;99.20
3816;DHT22;1923;48.154;11.536;2023-08-07T10:46:10;23.30;98.00
3816;DHT22;1923;48.154;11.536;2023-08-07T10:48:40;23.30;98.00
3816;DHT22;1923;48.154;11.536;2023-08-07T10:51:08;23.60;96.50
3816;DHT22;1923;48.154;11.536;2023-08-07T10:53:41;24.20;96.90
3816;DHT22;1923;48.154;11.536;2023-08-07T10:56:14;25.20;95.10
3816;DHT22;1923;48.154;11.536;2023-08-07T10:58:49;26.20;93.90
3816;DHT22;1923;48.154;11.536;2023-08-07T11:01:18;26.10;92.50
3816;DHT22;1923;48.154;11.536;2023-08-07T11:03:52;25.40;92.50
3816;DHT22;1923;48.154;11.536;2023-08-07T11:06:24;24.90;92.20
3816;DHT22;1923;48.154;11.536;2023-08-07T11:08:54;24.50;92.80
3816;DHT22;1923;48.154;11.536;2023-08-07T11:11:22;23.70;93.10
3816;DHT22;1923;48.154;11.536;2023-08-07T11:13:51;23.00;93.40
3816;DHT22;1923;48.154;11.536;2023-08-07T11:16:19;22.50;93.40
3816;DHT22;1923;48.154;11.536;2023-08-07T11:18:49;21.90;93.80
3816;DHT22;1923;48.154;11.536;2023-08-07T11:21:17;21.80;94.90
3816;DHT22;1923;48.154;11.536;2023-08-07T11:23:46;22.10;95.50
3816;DHT22;1923;48.154;11.536;2023-08-07T11:26:14;22.10;95.10
3816;DHT22;1923;48.154;11.536;2023-08-07T11:28:44;21.60;95.10
3816;DHT22;1923;48.154;11.536;2023-08-07T11:31:13;21.30;95.50
3816;DHT22;1923;48.154;11.536;2023-08-07T11:33:42;21.00;96.10
3816;DHT22;1923;48.154;11.536;2023-08-07T11:36:10;20.60;96.10
3816;DHT22;1923;48.154;11.536;2023-08-07T11:38:40;20.10;96.80
3816;DHT22;1923;48.154;11.536;2023-08-07T11:41:10;19.70;97.00
3816;DHT22;1923;48.154;11.536;2023-08-07T11:43:40;19.40;97.00
3816;DHT22;1923;48.154;11.536;2023-08-07T11:46:09;19.20;97.40
3816;DHT22;1923;48.154;11.536;2023-08-07T11:48:41;19.00;97.40
3816;DHT22;1923;48.154;11.536;2023-08-07T11:51:09;19.10;97.90
3816;DHT22;1923;48.154;11.536;2023-08-07T11:53:39;19.00;97.70
3816;DHT22;1923;48.154;11.536;2023-08-07T11:56:09;19.00;97.90
3816;DHT22;1923;48.154;11.536;2023-08-07T11:58:39;19.00;97.80
3816;DHT22;1923;48.154;11.536;2023-08-07T12:01:10;19.20;97.80
3816;DHT22;1923;48.154;11.536;2023-08-07T12:03:42;19.40;98.10
3816;DHT22;1923;48.154;11.536;2023-08-07T12:06:10;19.30;97.60
3816;DHT22;1923;48.154;11.536;2023-08-07T12:08:39;19.40;97.80
3816;DHT22;1923;48.154;11.536;2023-08-07T12:11:09;19.70;98.30
3816;DHT22;1923;48.154;11.536;2023-08-07T12:13:38;20.00;98.10
3816;DHT22;1923;48.154;11.536;2023-08-07T12:16:07;20.30;97.80
3816;DHT22;1923;48.154;11.536;2023-08-07T12:18:37;20.50;97.60
3816;DHT22;1923;48.154;11.536;2023-08-07T12:21:07;20.70;96.80
3816;DHT22;1923;48.154;11.536;2023-08-07T12:23:36;20.70;96.60
3816;DHT22;1923;48.154;11.536;2023-08-07T12:26:05;20.70;96.30
3816;DHT22;1923;48.154;11.536;2023-08-07T12:28:34;20.60;95.70
3816;DHT22;1923;48.154;11.536;2023-08-07T12:31:02;20.70;96.40
3816;DHT22;1923;48.154;11.536;2023-08-07T12:33:30;20.70;95.50
3816;DHT22;1923;48.154;11.536;2023-08-07T12:35:59;20.40;95.30
3816;DHT22;1923;48.154;11.536;2023-08-07T12:38:29;20.30;95.90
3816;DHT22;1923;48.154;11.536;2023-08-07T12:40:57;20.30;95.60
3816;DHT22;1923;48.154;11.536;2023-08-07T12:43:25;20.30;95.00
3816;DHT22;1923;48.154;11.536;2023-08-07T12:45:53;20.10;94.70
3816;DHT22;1923;48.154;11.536;2023-08-07T12:48:41;19.90;95.40
3816;DHT22;1923;48.154;11.536;2023-08-07T12:51:09;19.60;95.20
3816;DHT22;1923;48.154;11.536;2023-08-07T12:53:39;19.70;96.30
3816;DHT22;1923;48.154;11.536;2023-08-07T12:56:07;19.80;96.50
3816;DHT22;1923;48.154;11.536;2023-08-07T12:58:35;19.80;96.60
3816;DHT22;1923;48.154;11.536;2023-08-07T13:01:04;19.80;96.50
3816;DHT22;1923;48.154;11.536;2023-08-07T13:03:36;19.80;97.40
3816;DHT22;1923;48.154;11.536;2023-08-07T13:06:04;19.80;97.00
3816;DHT22;1923;48.154;11.536;2023-08-07T13:08:34;19.90;97.50
3816;DHT22;1923;48.154;11.536;2023-08-07T13:11:04;19.90;97.00
3816;DHT22;1923;48.154;11.536;2023-08-07T13:13:35;20.00;97.00
3816;DHT22;1923;48.154;11.536;2023-08-07T13:16:05;20.00;96.00
3816;DHT22;1923;48.154;11.536;2023-08-07T13:18:33;20.10;95.00
3816;DHT22;1923;48.154;11.536;2023-08-07T13:21:01;20.10;94.20
3816;DHT22;1923;48.154;11.536;2023-08-07T13:23:29;20.20;93.30
3816;DHT22;1923;48.154;11.536;2023-08-07T13:25:57;20.30;93.40
3816;DHT22;1923;48.154;11.536;2023-08-07T13:28:27;20.20;93.90
3816;DHT22;1923;48.154;11.536;2023-08-07T13:30:55;20.10;93.80
3816;DHT22;1923;48.154;11.536;2023-08-07T13:33:24;19.90;93.90
3816;DHT22;1923;48.154;11.536;2023-08-07T13:35:53;19.60;94.60
3816;DHT22;1923;48.154;11.536;2023-08-07T13:38:21;19.30;94.70
3816;DHT22;1923;48.154;11.536;2023-08-07T13:40:49;19.10;95.30
3816;DHT22;1923;48.154;11.536;2023-08-07T13:43:17;19.00;96.10
3816;DHT22;1923;48.154;11.536;2023-08-07T13:45:47;19.00;96.50
3816;DHT22;1923;48.154;11.536;2023-08-07T13:48:17;19.10;96.50
3816;DHT22;1923;48.154;11.536;2023-08-07T13:50:45;19.10;95.70
3816;DHT22;1923;48.154;11.536;2023-08-07T13:53:14;19.20;95.80
3816;DHT22;1923;48.154;11.536;2023-08-07T13:55:42;19.20;95.40
3816;DHT22;1923;48.154;11.536;2023-08-07T13:58:11;19.30;95.50
3816;DHT22;1923;48.154;11.536;2023-08-07T14:00:42;19.40;95.30
3816;DHT22;1923;48.154;11.536;2023-08-07T14:03:12;19.40;95.20
3816;DHT22;1923;48.154;11.536;2023-08-07T14:05:40;19.40;94.30
3816;DHT22;1923;48.154;11.536;2023-08-07T14:08:09;19.20;94.00
3816;DHT22;1923;48.154;11.536;2023-08-07T14:10:38;19.00;94.20
3816;DHT22;1923;48.154;11.536;2023-08-07T14:13:08;18.90;94.60
3816;DHT22;1923;48.154;11.536;2023-08-07T14:15:38;18.90;95.30
3816;DHT22;1923;48.154;11.536;2023-08-07T14:18:06;19.10;95.40
3816;DHT22;1923;48.154;11.536;2023-08-07T14:20:36;19.20;96.10
3816;DHT22;1923;48.154;11.536;2023-08-07T14:23:24;19.10;95.20
3816;DHT22;1923;48.154;11.536;2023-08-07T14:25:52;19.00;94.80
3816;DHT22;1923;48.154;11.536;2023-08-07T14:28:20;19.10;94.70
3816;DHT22;1923;48.154;11.536;2023-08-07T14:30:48;19.20;94.60
3816;DHT22;1923;48.154;11.536;2023-08-07T14:33:17;19.20;94.30
3816;DHT22;1923;48.154;11.536;2023-08-07T14:35:46;19.20;95.00
3816;DHT22;1923;48.154;11.536;2023-08-07T14:38:14;19.30;94.90
3816;DHT22;1923;48.154;11.536;2023-08-07T14:40:42;19.20;95.00
3816;DHT22;1923;48.154;11.536;2023-08-07T14:43:10;19.30;95.30
3816;DHT22;1923;48.154;11.536;2023-08-07T14:45:38;19.30;96.00
3816;DHT22;1923;48.154;11.536;2023-08-07T14:48:06;19.30;95.90
3816;DHT22;1923;48.154;11.536;2023-08-07T14:50:34;19.30;96.50
3816;DHT22;1923;48.154;11.536;2023-08-07T14:53:04;19.10;96.40
3816;DHT22;1923;48.154;11.536;2023-08-07T14:55:32;19.00;97.00
3816;DHT22;1923;48.154;11.536;2023-08-07T14:58:00;18.80;97.50
3816;DHT22;1923;48.154;11.536;2023-08-07T15:00:30;18.90;98.40
3816;DHT22;1923;48.154;11.536;2023-08-07T15:02:58;18.80;98.10
3816;DHT22;1923;48.154;11.536;2023-08-07T15:05:26;18.90;98.00
3816;DHT22;1923;48.154;11.536;2023-08-07T15:07:54;18.80;97.10
3816;DHT22;1923;48.154;11.536;2023-08-07T15:10:23;18.80;97.90
3816;DHT22;1923;48.154;11.536;2023-08-07T15:12:51;18.80;97.50
3816;DHT22;1923;48.154;11.536;2023-08-07T15:15:19;18.60;97.30
3816;DHT22;1923;48.154;11.536;2023-08-07T15:17:47;18.50;97.00
3816;DHT22;1923;48.154;11.536;2023-08-07T15:20:16;18.30;96.80
3816;DHT22;1923;48.154;11.536;2023-08-07T15:22:47;18.30;96.90
3816;DHT22;1923;48.154;11.536;2023-08-07T15:25:16;18.30;97.40
3816;DHT22;1923;48.154;11.536;2023-08-07T15:27:46;18.30;97.40
3816;DHT22;1923;48.154;11.536;2023-08-07T15:30:14;18.40;97.60
3816;DHT22;1923;48.154;11.536;2023-08-07T15:32:42;18.50;97.70
3816;DHT22;1923;48.154;11.536;2023-08-07T15:35:10;18.40;97.10
3816;DHT22;1923;48.154;11.536;2023-08-07T15:37:38;18.50;97.60
3816;DHT22;1923;48.154;11.536;2023-08-07T15:40:07;18.40;97.60
3816;DHT22;1923;48.154;11.536;2023-08-07T15:42:36;18.40;97.90
3816;DHT22;1923;48.154;11.536;2023-08-07T15:45:06;18.40;98.10
3816;DHT22;1923;48.154;11.536;2023-08-07T15:47:35;18.40;98.70
3816;DHT22;1923;48.154;11.536;2023-08-07T15:50:03;18.50;98.90
3816;DHT22;1923;48.154;11.536;2023-08-07T15:52:32;18.40;98.60
3816;DHT22;1923;48.154;11.536;2023-08-07T15:55:00;18.30;98.60